Time;durP1;ratioP1;P1;durP2;ratioP2;P2;SDS_P1;SDS_P2;PMS_P1;PMS_P2;Temp;Humidity;BMP_temperature;BMP_pressure;BME280_temperature;BME280_humidity;BME280_pressure;Samples;Min_cycle;Max_cycle;Signal;HPM_P1;HPM_P2
2020/12/14 00:01:06;;;;;;;1.67;1.40;;;6.90;98.20;;;;;;5122011;27;20452;-76
2020/12/14 00:03:33;;;;;;;1.60;1.30;;;7.00;98.20;;;;;;5124339;27;20452;-75
2020/12/14 00:06:07;;;;;;;1.60;1.30;;;7.00;98.20;;;;;;5115586;27;20460;-75
2020/12/14 00:08:34;;;;;;;1.60;1.40;;;7.00;98.20;;;;;;5121351;27;20503;-77
2020/12/14 00:11:00;;;;;;;1.60;1.30;;;7.00;98.20;;;;;;5128081;27;20505;-78
2020/12/14 00:13:27;;;;;;;1.60;1.30;;;7.00;98.20;;;;;;5112991;28;20556;-76
2020/12/14 00:15:53;;;;;;;1.60;1.30;;;7.00;98.20;;;;;;5109990;27;20449;-75
2020/12/14 00:18:20;;;;;;;3.00;2.80;;;7.00;98.20;;;;;;5121062;27;20472;-77
2020/12/14 00:20:46;;;;;;;1.60;1.30;;;7.00;98.20;;;;;;5124973;27;20457;-76
2020/12/14 00:23:13;;;;;;;1.67;1.40;;;7.00;98.20;;;;;;5114436;28;20771;-77
2020/12/14 00:25:40;;;;;;;1.60;1.30;;;7.10;98.20;;;;;;5117374;28;20463;-77
2020/12/14 00:28:06;;;;;;;1.80;1.53;;;7.10;98.20;;;;;;5125872;28;20484;-77
2020/12/14 00:30:32;;;;;;;1.63;1.40;;;7.10;98.20;;;;;;5114136;28;20464;-75
2020/12/14 00:32:59;;;;;;;1.60;1.30;;;7.10;98.20;;;;;;5116330;28;20464;-75
2020/12/14 00:35:25;;;;;;;1.60;1.20;;;7.10;98.20;;;;;;5118538;28;20452;-77
2020/12/14 00:37:52;;;;;;;1.67;1.30;;;7.10;98.20;;;;;;5109218;27;20473;-77
2020/12/14 00:40:19;;;;;;;1.60;1.20;;;7.10;98.20;;;;;;5122445;28;20484;-77
2020/12/14 00:42:45;;;;;;;1.60;1.30;;;7.20;98.20;;;;;;5122936;28;20480;-77
2020/12/14 00:45:12;;;;;;;1.60;1.20;;;7.20;98.20;;;;;;5124018;27;21054;-76
2020/12/14 00:47:38;;;;;;;1.60;1.30;;;7.10;98.20;;;;;;5127431;27;20461;-75
2020/12/14 00:50:05;;;;;;;1.60;1.30;;;7.10;98.20;;;;;;5106040;28;20485;-76
2020/12/14 00:52:31;;;;;;;1.63;1.30;;;7.10;98.20;;;;;;5114904;28;20459;-75
2020/12/14 00:54:58;;;;;;;1.87;1.77;;;7.20;98.20;;;;;;5126505;27;20450;-74
2020/12/14 00:57:25;;;;;;;1.60;1.20;;;7.20;98.20;;;;;;5124352;27;20446;-78
2020/12/14 00:59:51;;;;;;;1.60;1.20;;;7.20;98.20;;;;;;5118963;28;20445;-76
2020/12/14 01:02:22;;;;;;;1.60;1.20;;;7.20;98.20;;;;;;5123752;28;20469;-77
2020/12/14 01:04:49;;;;;;;1.60;1.20;;;7.20;98.20;;;;;;5116517;28;20703;-76
2020/12/14 01:07:16;;;;;;;1.60;1.30;;;7.20;98.20;;;;;;5114418;28;20554;-76
2020/12/14 01:09:42;;;;;;;1.60;1.30;;;7.20;98.20;;;;;;5102879;28;20483;-75
2020/12/14 01:12:08;;;;;;;1.60;1.40;;;7.20;98.20;;;;;;5121113;28;20759;-77
2020/12/14 01:14:36;;;;;;;1.60;1.20;;;7.20;98.20;;;;;;5119139;27;20568;-77
2020/12/14 01:17:02;;;;;;;1.60;1.30;;;7.20;98.20;;;;;;5120502;27;20456;-75
2020/12/14 01:19:29;;;;;;;1.60;1.30;;;7.20;98.20;;;;;;5111960;28;20484;-78
2020/12/14 01:21:55;;;;;;;1.60;1.30;;;7.20;98.20;;;;;;5120082;27;20971;-75
2020/12/14 01:24:22;;;;;;;1.60;1.30;;;7.20;98.20;;;;;;5128541;27;20572;-74
2020/12/14 01:26:48;;;;;;;1.60;1.40;;;7.20;98.20;;;;;;5127133;27;20456;-75
2020/12/14 01:29:14;;;;;;;1.63;1.27;;;7.20;98.20;;;;;;5107380;28;21011;-76
2020/12/14 01:31:42;;;;;;;1.70;1.50;;;7.20;98.20;;;;;;5129220;27;20468;-78
2020/12/14 01:34:08;;;;;;;1.60;1.27;;;7.20;98.20;;;;;;5120522;27;20452;-77
2020/12/14 01:36:35;;;;;;;1.60;1.23;;;7.20;98.20;;;;;;5117067;28;20482;-78
2020/12/14 01:39:01;;;;;;;1.60;1.20;;;7.30;98.20;;;;;;5117857;27;20619;-76
2020/12/14 01:41:27;;;;;;;1.60;1.33;;;7.30;98.20;;;;;;5128926;27;20456;-76
2020/12/14 01:43:54;;;;;;;1.60;1.30;;;7.30;98.20;;;;;;5124806;27;20460;-73
2020/12/14 01:46:31;;;;;;;1.60;1.30;;;7.30;98.20;;;;;;5107134;28;20479;-75
2020/12/14 01:49:00;;;;;;;1.60;1.30;;;7.30;98.20;;;;;;5129627;27;20482;-76
2020/12/14 01:51:31;;;;;;;1.80;1.70;;;7.30;98.20;;;;;;5119140;27;20448;-78
2020/12/14 01:53:59;;;;;;;1.60;1.40;;;7.30;98.20;;;;;;5117528;27;20484;-77
2020/12/14 01:56:26;;;;;;;1.60;1.30;;;7.30;98.20;;;;;;5121057;27;20469;-77
2020/12/14 01:58:53;;;;;;;1.60;1.30;;;7.20;98.20;;;;;;5126494;27;20775;-76
2020/12/14 02:01:19;;;;;;;1.60;1.20;;;7.20;98.20;;;;;;5111243;27;20464;-76
2020/12/14 02:03:45;;;;;;;1.60;1.40;;;7.20;98.20;;;;;;5126644;27;20451;-77
2020/12/14 02:06:13;;;;;;;1.60;1.20;;;7.20;98.20;;;;;;5120339;27;20475;-76
2020/12/14 02:08:39;;;;;;;1.60;1.30;;;7.20;98.20;;;;;;5128717;27;20480;-77
2020/12/14 02:11:06;;;;;;;1.60;1.30;;;7.20;98.20;;;;;;5112932;27;20471;-77
2020/12/14 02:13:33;;;;;;;1.60;1.20;;;7.20;98.20;;;;;;5109272;27;21227;-78
2020/12/14 02:15:59;;;;;;;1.60;1.30;;;7.20;98.20;;;;;;5127818;27;20452;-76
2020/12/14 02:18:26;;;;;;;1.60;1.30;;;7.10;98.20;;;;;;5128107;27;20472;-77
2020/12/14 02:20:52;;;;;;;1.60;1.30;;;7.10;98.20;;;;;;5108266;28;20472;-74
2020/12/14 02:23:19;;;;;;;1.60;1.27;;;7.10;98.20;;;;;;5122703;27;20471;-77
2020/12/14 02:25:47;;;;;;;1.60;1.30;;;7.10;98.20;;;;;;5124929;27;20604;-74
2020/12/14 02:28:13;;;;;;;1.60;1.20;;;7.10;98.20;;;;;;5124707;27;20892;-76
2020/12/14 02:30:39;;;;;;;1.60;1.30;;;7.10;98.20;;;;;;5104752;28;20457;-74
2020/12/14 02:33:06;;;;;;;2.43;2.03;;;7.10;98.20;;;;;;5114962;27;20465;-74
2020/12/14 02:35:32;;;;;;;1.70;1.40;;;7.10;98.20;;;;;;5119796;27;20451;-76
2020/12/14 02:38:02;;;;;;;1.60;1.30;;;7.10;98.20;;;;;;5118721;27;20476;-75
2020/12/14 02:40:28;;;;;;;1.60;1.20;;;7.10;98.20;;;;;;5102048;28;20472;-75
2020/12/14 02:42:55;;;;;;;1.60;1.20;;;7.10;98.20;;;;;;5118475;27;20552;-76
2020/12/14 02:45:22;;;;;;;1.60;1.30;;;7.10;98.20;;;;;;5128094;27;20508;-75
2020/12/14 02:47:48;;;;;;;1.60;1.20;;;7.10;98.20;;;;;;5109139;28;20481;-75
2020/12/14 02:50:14;;;;;;;1.60;1.30;;;7.10;98.20;;;;;;5107346;27;20508;-75
2020/12/14 02:52:41;;;;;;;1.60;1.20;;;7.10;98.20;;;;;;5116633;27;20496;-77
2020/12/14 02:55:08;;;;;;;1.60;1.20;;;7.10;98.20;;;;;;5123784;27;20460;-79
2020/12/14 02:57:34;;;;;;;1.60;1.30;;;7.10;98.20;;;;;;5100167;27;20509;-78
2020/12/14 03:00:01;;;;;;;1.60;1.30;;;7.10;98.20;;;;;;5111718;28;20497;-77
2020/12/14 03:02:28;;;;;;;2.37;2.17;;;7.10;98.20;;;;;;5121051;27;20468;-76
2020/12/14 03:04:54;;;;;;;1.60;1.20;;;7.10;98.20;;;;;;5118102;27;20755;-75
2020/12/14 03:07:21;;;;;;;1.60;1.30;;;7.00;98.20;;;;;;5105118;27;20481;-76
2020/12/14 03:09:47;;;;;;;1.60;1.20;;;7.00;98.20;;;;;;5115910;27;21045;-75
2020/12/14 03:12:13;;;;;;;1.60;1.40;;;7.00;98.20;;;;;;5108512;27;20496;-77
2020/12/14 03:14:40;;;;;;;1.67;1.37;;;7.00;98.20;;;;;;5099981;28;20497;-74
2020/12/14 03:17:07;;;;;;;1.60;1.30;;;7.00;98.20;;;;;;5109752;27;20875;-76
2020/12/14 03:19:34;;;;;;;1.60;1.30;;;7.00;98.20;;;;;;5125255;27;20885;-77
2020/12/14 03:22:01;;;;;;;1.60;1.30;;;7.10;98.20;;;;;;5103275;28;20498;-78
2020/12/14 03:24:27;;;;;;;1.60;1.30;;;7.00;98.20;;;;;;5116313;27;20477;-76
2020/12/14 03:26:54;;;;;;;1.60;1.30;;;7.10;98.20;;;;;;5128818;27;20455;-75
2020/12/14 03:29:20;;;;;;;1.60;1.30;;;7.10;98.20;;;;;;5105053;27;20489;-74
2020/12/14 03:31:47;;;;;;;1.60;1.40;;;7.10;98.20;;;;;;5104839;27;20505;-77
2020/12/14 03:34:14;;;;;;;1.60;1.30;;;7.10;98.20;;;;;;5116500;28;20455;-79
2020/12/14 03:36:41;;;;;;;1.60;1.23;;;7.10;98.20;;;;;;5122368;27;20463;-77
2020/12/14 03:39:07;;;;;;;1.60;1.20;;;7.10;98.20;;;;;;5111821;28;20504;-78
2020/12/14 03:41:34;;;;;;;1.60;1.30;;;7.10;98.20;;;;;;5106927;27;20466;-78
2020/12/14 03:44:00;;;;;;;1.60;1.30;;;7.10;98.20;;;;;;5123165;27;20451;-76
2020/12/14 03:46:27;;;;;;;1.60;1.37;;;7.10;98.20;;;;;;5122390;27;20695;-77
2020/12/14 03:48:55;;;;;;;1.60;1.20;;;7.20;98.20;;;;;;5107637;28;21087;-76
2020/12/14 03:51:24;;;;;;;1.60;1.30;;;7.20;98.20;;;;;;5121833;27;20463;-75
2020/12/14 03:53:51;;;;;;;1.60;1.20;;;7.20;98.20;;;;;;5128514;27;20515;-74
2020/12/14 03:56:19;;;;;;;1.60;1.30;;;7.20;98.20;;;;;;5122163;27;20830;-79
2020/12/14 03:58:45;;;;;;;1.60;1.30;;;7.20;98.20;;;;;;5110030;27;20475;-75
2020/12/14 04:01:12;;;;;;;1.60;1.30;;;7.20;98.20;;;;;;5124171;27;20455;-76
2020/12/14 04:03:39;;;;;;;1.60;1.20;;;7.20;98.20;;;;;;5116035;27;20457;-78
2020/12/14 04:06:05;;;;;;;1.60;1.30;;;7.20;98.20;;;;;;5109054;28;20693;-77
2020/12/14 04:08:33;;;;;;;1.60;1.30;;;7.20;98.20;;;;;;5108640;27;20506;-78
2020/12/14 04:10:59;;;;;;;1.60;1.20;;;7.20;98.20;;;;;;5121309;27;20489;-75
2020/12/14 04:13:25;;;;;;;1.60;1.30;;;7.20;98.20;;;;;;5122953;27;20456;-75
2020/12/14 04:15:52;;;;;;;1.60;1.40;;;7.30;98.20;;;;;;5120850;27;20459;-76
2020/12/14 04:18:18;;;;;;;1.60;1.30;;;7.30;98.20;;;;;;5122784;27;20488;-75
2020/12/14 04:20:45;;;;;;;1.60;1.30;;;7.30;98.20;;;;;;5122856;28;20488;-77
2020/12/14 04:23:11;;;;;;;1.60;1.30;;;7.30;98.20;;;;;;5101488;28;20453;-77
2020/12/14 04:25:39;;;;;;;1.60;1.30;;;7.30;98.20;;;;;;5116478;27;20707;-76
2020/12/14 04:28:05;;;;;;;1.60;1.23;;;7.30;98.20;;;;;;5126163;27;20567;-75
2020/12/14 04:30:31;;;;;;;1.60;1.20;;;7.30;98.20;;;;;;5109469;28;21174;-75
2020/12/14 04:32:58;;;;;;;1.60;1.20;;;7.30;98.20;;;;;;5118365;28;20461;-76
2020/12/14 04:35:25;;;;;;;1.60;1.20;;;7.30;98.20;;;;;;5121591;28;20506;-77
2020/12/14 04:37:52;;;;;;;1.60;1.20;;;7.30;98.20;;;;;;5115443;27;20879;-77
2020/12/14 04:40:19;;;;;;;1.60;1.40;;;7.30;98.20;;;;;;5110920;28;20482;-78
2020/12/14 04:42:50;;;;;;;1.60;1.20;;;7.30;98.20;;;;;;5124473;28;20453;-76
2020/12/14 04:45:18;;;;;;;1.60;1.30;;;7.30;98.20;;;;;;5126744;28;20447;-75
2020/12/14 04:47:45;;;;;;;1.60;1.27;;;7.30;98.20;;;;;;5103376;28;20483;-75
2020/12/14 04:50:11;;;;;;;1.60;1.20;;;7.30;98.20;;;;;;5127079;27;20472;-75
2020/12/14 04:52:40;;;;;;;1.60;1.40;;;7.20;98.20;;;;;;5127277;27;20464;-74
2020/12/14 04:55:08;;;;;;;1.60;1.20;;;7.20;98.20;;;;;;5128021;27;20878;-75
2020/12/14 04:57:34;;;;;;;1.60;1.20;;;7.20;98.20;;;;;;5114867;27;20551;-74
2020/12/14 05:00:01;;;;;;;1.63;1.30;;;7.20;98.20;;;;;;5126159;27;20477;-75
2020/12/14 05:02:28;;;;;;;1.60;1.20;;;7.20;98.20;;;;;;5117332;27;20452;-75
2020/12/14 05:04:54;;;;;;;1.60;1.20;;;7.20;98.20;;;;;;5114893;27;20833;-76
2020/12/14 05:07:38;;;;;;;1.60;1.30;;;7.10;98.20;;;;;;5116723;27;21018;-76
2020/12/14 05:10:04;;;;;;;2.87;2.67;;;7.10;98.20;;;;;;5126089;27;20472;-78
2020/12/14 05:12:31;;;;;;;1.60;1.20;;;7.10;98.20;;;;;;5108927;27;21025;-78
2020/12/14 05:15:01;;;;;;;1.60;1.20;;;7.20;98.20;;;;;;5106782;27;20898;-78
2020/12/14 05:17:27;;;;;;;1.60;1.30;;;7.20;98.20;;;;;;5126326;27;20452;-79
2020/12/14 05:19:54;;;;;;;1.60;1.30;;;7.20;98.20;;;;;;5128738;27;20452;-75
2020/12/14 05:22:21;;;;;;;1.60;1.27;;;7.20;98.20;;;;;;5107287;27;20497;-75
2020/12/14 05:24:50;;;;;;;2.13;1.93;;;7.20;98.20;;;;;;5118365;27;20455;-76
2020/12/14 05:27:31;;;;;;;1.60;1.20;;;7.20;98.20;;;;;;5123409;27;20451;-74
2020/12/14 05:29:58;;;;;;;1.60;1.20;;;7.20;98.20;;;;;;5114975;27;20904;-76
2020/12/14 05:32:26;;;;;;;1.60;1.30;;;7.20;98.20;;;;;;5122633;27;20447;-76
2020/12/14 05:34:52;;;;;;;1.60;1.20;;;7.20;98.20;;;;;;5111141;28;20460;-77
2020/12/14 05:37:19;;;;;;;1.70;1.50;;;7.20;98.20;;;;;;5131004;27;20484;-77
2020/12/14 05:39:46;;;;;;;1.60;1.30;;;7.20;98.20;;;;;;5113735;28;20962;-75
2020/12/14 05:42:16;;;;;;;1.60;1.37;;;7.20;98.20;;;;;;5121324;27;20455;-75
2020/12/14 05:44:45;;;;;;;1.60;1.20;;;7.20;98.20;;;;;;5121469;27;20448;-75
2020/12/14 05:47:29;;;;;;;1.60;1.23;;;7.10;98.20;;;;;;5109644;27;20441;-75
2020/12/14 05:49:57;;;;;;;1.60;1.30;;;7.10;98.20;;;;;;5121871;27;20483;-78
2020/12/14 05:52:27;;;;;;;1.60;1.20;;;7.10;98.20;;;;;;5121322;27;20453;-75
2020/12/14 05:54:56;;;;;;;1.60;1.23;;;7.10;98.20;;;;;;5119872;27;20463;-77
2020/12/14 05:57:29;;;;;;;1.60;1.20;;;7.10;98.20;;;;;;5107077;27;20457;-78
2020/12/14 06:00:00;;;;;;;1.60;1.20;;;7.10;98.20;;;;;;5117216;27;20875;-76
2020/12/14 06:02:28;;;;;;;1.60;1.30;;;7.20;98.20;;;;;;5113147;27;20453;-77
2020/12/14 06:04:57;;;;;;;2.47;2.27;;;7.20;98.20;;;;;;5112106;27;20449;-76
2020/12/14 06:07:27;;;;;;;1.60;1.30;;;7.20;98.20;;;;;;5099582;28;20452;-77
2020/12/14 06:10:11;;;;;;;1.60;1.30;;;7.20;98.20;;;;;;5111845;27;20602;-75
2020/12/14 06:12:41;;;;;;;1.60;1.20;;;7.20;98.20;;;;;;5121259;27;20461;-74
2020/12/14 06:15:10;;;;;;;1.60;1.30;;;7.20;98.20;;;;;;5113631;27;20479;-77
2020/12/14 06:17:38;;;;;;;1.60;1.20;;;7.30;98.20;;;;;;5114294;27;20508;-75
2020/12/14 06:20:08;;;;;;;1.60;1.13;;;7.30;98.20;;;;;;5121386;27;20449;-77
2020/12/14 06:22:36;;;;;;;1.60;1.30;;;7.30;98.20;;;;;;5126507;27;20465;-78
2020/12/14 06:25:04;;;;;;;1.60;1.40;;;7.30;98.20;;;;;;5112334;27;20533;-78
2020/12/14 06:27:32;;;;;;;1.60;1.30;;;7.30;98.20;;;;;;5109852;27;20524;-76
2020/12/14 06:29:58;;;;;;;1.60;1.20;;;7.30;98.20;;;;;;5120427;27;20516;-77
2020/12/14 06:32:39;;;;;;;1.60;1.40;;;7.30;98.20;;;;;;5111914;27;20453;-76
2020/12/14 06:35:37;;;;;;;1.60;1.30;;;7.30;98.20;;;;;;5106594;27;21013;-77
2020/12/14 06:38:05;;;;;;;3.40;3.10;;;7.30;98.20;;;;;;5108494;27;20559;-78
2020/12/14 06:40:58;;;;;;;1.60;1.30;;;7.30;98.20;;;;;;5106075;28;20491;-77
2020/12/14 06:43:42;;;;;;;1.60;1.20;;;7.30;98.20;;;;;;5117969;27;20460;-76
2020/12/14 06:46:11;;;;;;;1.60;1.20;;;7.40;98.20;;;;;;5116378;27;20503;-78
2020/12/14 06:48:42;;;;;;;1.60;1.20;;;7.40;98.20;;;;;;5113085;27;20473;-77
2020/12/14 06:51:21;;;;;;;1.60;1.20;;;7.50;98.20;;;;;;5110561;27;20449;-77
2020/12/14 06:53:56;;;;;;;1.60;1.20;;;7.50;98.20;;;;;;5116184;27;20444;-78
2020/12/14 06:56:53;;;;;;;1.60;1.30;;;7.60;98.20;;;;;;5099608;27;20468;-75
2020/12/14 06:59:37;;;;;;;1.60;1.20;;;7.60;98.20;;;;;;5078015;28;20481;-76
2020/12/14 07:02:09;;;;;;;1.60;1.30;;;7.70;98.20;;;;;;5092293;27;20506;-75
2020/12/14 07:04:42;;;;;;;1.60;1.30;;;7.70;98.20;;;;;;5103806;28;20483;-76
2020/12/14 07:07:33;;;;;;;1.60;1.30;;;7.70;98.20;;;;;;5118568;27;20481;-77
2020/12/14 07:10:23;;;;;;;1.60;1.27;;;7.70;98.20;;;;;;5098429;27;20634;-75
2020/12/14 07:12:58;;;;;;;2.43;2.23;;;7.70;98.20;;;;;;5096925;28;20541;-78
2020/12/14 07:15:29;;;;;;;1.63;1.30;;;7.80;98.20;;;;;;5114633;27;20459;-76
2020/12/14 07:18:18;;;;;;;1.60;1.27;;;7.80;98.20;;;;;;5111158;27;20482;-75
2020/12/14 07:21:07;;;;;;;1.60;1.30;;;7.80;98.20;;;;;;5111605;27;20513;-77
2020/12/14 07:23:38;;;;;;;1.60;1.30;;;7.80;98.20;;;;;;5105036;27;20932;-77
2020/12/14 07:26:10;;;;;;;1.60;1.30;;;7.90;98.20;;;;;;5115892;27;20461;-76
2020/12/14 07:28:45;;;;;;;1.60;1.20;;;7.90;98.20;;;;;;5119470;27;20512;-76
2020/12/14 07:31:17;;;;;;;1.60;1.33;;;7.90;98.20;;;;;;5102680;27;21310;-77
2020/12/14 07:34:17;;;;;;;1.63;1.40;;;7.90;98.20;;;;;;5111661;27;20452;-76
2020/12/14 07:36:43;;;;;;;1.60;1.40;;;7.80;98.20;;;;;;5108013;27;20451;-75
2020/12/14 07:39:19;;;;;;;1.60;1.40;;;7.80;98.20;;;;;;5114946;27;20506;-76
2020/12/14 07:42:12;;;;;;;1.70;1.27;;;7.70;98.20;;;;;;5104483;27;20452;-77
2020/12/14 07:44:49;;;;;;;1.60;1.20;;;7.70;98.20;;;;;;5102434;27;20474;-77
2020/12/14 07:47:22;;;;;;;1.60;1.20;;;7.70;98.20;;;;;;5117674;27;20450;-75
2020/12/14 07:50:24;;;;;;;1.60;1.30;;;7.60;98.20;;;;;;5114971;27;20508;-77
2020/12/14 07:53:10;;;;;;;1.60;1.20;;;7.60;98.20;;;;;;5105046;27;21040;-76
2020/12/14 07:55:38;;;;;;;1.60;1.13;;;7.60;98.20;;;;;;5105268;28;20456;-77
2020/12/14 07:58:05;;;;;;;1.60;1.27;;;7.60;98.20;;;;;;5103331;28;20491;-78
2020/12/14 08:00:37;;;;;;;1.67;1.37;;;7.60;98.20;;;;;;5097116;28;20597;-76
2020/12/14 08:03:06;;;;;;;1.60;1.20;;;7.60;98.20;;;;;;5100053;27;20491;-75
2020/12/14 08:05:46;;;;;;;1.60;1.30;;;7.60;98.20;;;;;;5105141;28;20660;-77
2020/12/14 08:08:15;;;;;;;1.60;1.20;;;7.70;98.20;;;;;;5116335;27;20475;-77
2020/12/14 08:10:44;;;;;;;1.60;1.20;;;7.70;98.20;;;;;;5114322;27;20477;-74
2020/12/14 08:13:15;;;;;;;1.60;1.20;;;7.70;98.20;;;;;;5113657;27;20461;-77
2020/12/14 08:15:43;;;;;;;1.60;1.20;;;7.70;98.20;;;;;;5108532;28;20734;-76
2020/12/14 08:18:13;;;;;;;1.60;1.20;;;7.70;98.20;;;;;;5115457;27;20485;-76
2020/12/14 08:20:41;;;;;;;1.60;1.20;;;7.70;98.20;;;;;;5111765;28;20624;-75
2020/12/14 08:23:24;;;;;;;1.70;1.50;;;7.70;98.20;;;;;;5116803;27;20465;-76
2020/12/14 08:29:21;;;;;;;1.60;1.20;;;7.80;98.20;;;;;;5004739;28;21178;-76
2020/12/14 08:31:51;;;;;;;1.60;1.20;;;7.80;98.20;;;;;;5050340;28;21068;-75
2020/12/14 08:34:53;;;;;;;1.60;1.20;;;7.80;98.20;;;;;;5106976;28;20458;-74
2020/12/14 08:37:38;;;;;;;3.53;3.33;;;7.80;98.20;;;;;;5097238;28;20576;-76
2020/12/14 08:40:08;;;;;;;1.60;1.27;;;7.80;98.20;;;;;;5113928;28;20645;-76
2020/12/14 08:42:40;;;;;;;1.60;1.20;;;7.80;98.20;;;;;;5101418;28;20453;-75
2020/12/14 08:45:28;;;;;;;1.60;1.30;;;7.80;98.20;;;;;;5110822;28;20455;-75
2020/12/14 08:48:03;;;;;;;1.60;1.20;;;7.90;98.20;;;;;;5111352;28;20896;-75
2020/12/14 08:50:31;;;;;;;1.80;1.70;;;7.90;98.20;;;;;;5116791;28;21091;-75
2020/12/14 08:53:09;;;;;;;1.60;1.20;;;7.90;98.20;;;;;;5103390;28;20518;-75
2020/12/14 08:55:39;;;;;;;1.63;1.37;;;7.90;98.20;;;;;;5102833;28;21013;-76
2020/12/14 08:58:06;;;;;;;1.60;1.20;;;7.90;98.20;;;;;;5101154;27;20825;-78
2020/12/14 09:00:37;;;;;;;1.60;1.30;;;8.00;98.20;;;;;;5104336;28;20453;-76
2020/12/14 09:03:04;;;;;;;1.60;1.20;;;7.90;98.20;;;;;;5106954;28;20453;-76
2020/12/14 09:05:34;;;;;;;1.60;1.20;;;7.90;98.20;;;;;;5108357;28;20547;-76
2020/12/14 09:08:14;;;;;;;1.90;1.70;;;7.90;98.20;;;;;;5108349;28;20481;-75
2020/12/14 09:10:57;;;;;;;1.60;1.20;;;7.90;98.20;;;;;;5099235;28;20481;-75
2020/12/14 09:13:28;;;;;;;1.60;1.30;;;7.90;98.20;;;;;;5120799;28;20452;-75
2020/12/14 09:16:00;;;;;;;1.60;1.20;;;7.90;98.20;;;;;;5114385;28;20453;-76
2020/12/14 09:18:44;;;;;;;1.60;1.20;;;8.00;98.20;;;;;;5116246;28;20707;-76
2020/12/14 09:21:11;;;;;;;1.60;1.30;;;8.00;98.20;;;;;;5108761;28;20786;-75
2020/12/14 09:23:40;;;;;;;1.60;1.20;;;8.00;98.20;;;;;;5121321;27;20462;-75
2020/12/14 09:26:06;;;;;;;1.60;1.27;;;8.00;98.20;;;;;;5117627;28;20456;-75
2020/12/14 09:28:36;;;;;;;1.60;1.27;;;8.00;98.20;;;;;;5111112;28;20523;-75
2020/12/14 09:31:06;;;;;;;1.60;1.20;;;8.10;98.20;;;;;;5112692;28;20548;-76
2020/12/14 09:33:44;;;;;;;1.60;1.20;;;8.10;98.20;;;;;;5116494;28;20556;-76
2020/12/14 09:36:22;;;;;;;1.60;1.30;;;8.10;98.20;;;;;;5110431;27;20499;-77
2020/12/14 09:38:54;;;;;;;1.60;1.20;;;8.20;98.20;;;;;;5117886;27;20478;-76
2020/12/14 09:41:21;;;;;;;1.60;1.30;;;8.20;98.20;;;;;;5120283;27;20460;-75
2020/12/14 09:43:50;;;;;;;1.60;1.20;;;8.20;98.20;;;;;;5112646;27;20484;-75
2020/12/14 09:46:24;;;;;;;1.60;1.20;;;8.30;98.20;;;;;;5116956;27;20459;-74
2020/12/14 09:48:51;;;;;;;1.60;1.23;;;8.30;98.20;;;;;;5114266;27;20482;-74
2020/12/14 09:51:21;;;;;;;1.60;1.20;;;8.30;98.20;;;;;;5110354;27;20488;-75
2020/12/14 09:53:52;;;;;;;1.60;1.23;;;8.40;98.20;;;;;;5107277;27;20466;-74
2020/12/14 09:56:26;;;;;;;1.60;1.20;;;8.40;98.20;;;;;;5112321;27;20448;-76
2020/12/14 09:58:57;;;;;;;1.60;1.20;;;8.40;98.20;;;;;;5118077;27;20475;-76
2020/12/14 10:01:31;;;;;;;1.60;1.20;;;8.40;98.20;;;;;;5112363;27;20452;-75
2020/12/14 10:03:59;;;;;;;1.60;1.20;;;8.50;98.20;;;;;;5113456;27;20468;-76
2020/12/14 10:06:28;;;;;;;1.60;1.20;;;8.60;98.20;;;;;;5113280;27;20492;-75
2020/12/14 10:08:57;;;;;;;1.60;1.20;;;8.60;98.20;;;;;;5116210;27;21010;-77
2020/12/14 10:11:25;;;;;;;1.60;1.20;;;8.60;98.20;;;;;;5109806;28;20495;-76
2020/12/14 10:13:52;;;;;;;1.60;1.20;;;8.70;98.20;;;;;;5109562;27;20841;-77
2020/12/14 10:16:21;;;;;;;1.60;1.20;;;8.80;98.20;;;;;;5124497;27;20459;-76
2020/12/14 10:18:49;;;;;;;1.60;1.20;;;8.90;98.20;;;;;;5108802;27;20517;-75
2020/12/14 10:21:16;;;;;;;1.60;1.20;;;9.00;98.20;;;;;;5107660;28;20464;-75
2020/12/14 10:23:43;;;;;;;2.83;2.20;;;9.10;98.20;;;;;;5117877;27;20502;-76
2020/12/14 10:26:10;;;;;;;1.63;1.20;;;9.10;98.20;;;;;;5121413;27;20547;-76
2020/12/14 10:28:41;;;;;;;1.60;1.10;;;9.20;98.20;;;;;;5101534;27;20560;-77
2020/12/14 10:31:18;;;;;;;1.60;1.20;;;9.20;98.20;;;;;;5103527;28;20480;-75
2020/12/14 10:34:01;;;;;;;;;;;;;;;;;;;;;
2020/12/14 10:36:57;;;;;;;1.60;1.20;;;9.20;98.20;;;;;;5111439;27;20476;-75
2020/12/14 10:39:32;;;;;;;1.60;1.20;;;9.10;98.20;;;;;;5095582;27;20481;-75
2020/12/14 10:42:12;;;;;;;1.60;1.20;;;9.10;98.20;;;;;;5108877;28;20464;-78
2020/12/14 10:44:46;;;;;;;1.70;1.30;;;9.10;98.20;;;;;;5117714;27;20558;-76
2020/12/14 10:47:16;;;;;;;1.67;1.23;;;9.10;98.20;;;;;;5105166;27;20472;-77
2020/12/14 10:50:03;;;;;;;3.70;3.27;;;9.20;98.20;;;;;;5112077;27;20784;-76
2020/12/14 10:52:38;;;;;;;1.60;1.10;;;9.20;98.20;;;;;;5102915;27;20670;-76
2020/12/14 10:55:07;;;;;;;1.60;1.10;;;9.20;98.20;;;;;;5107558;27;20567;-77
2020/12/14 10:57:37;;;;;;;1.60;1.10;;;9.20;98.20;;;;;;5107057;27;20464;-77
2020/12/14 11:00:07;;;;;;;1.60;1.20;;;9.30;98.20;;;;;;5113489;27;20514;-76
2020/12/14 11:02:38;;;;;;;1.60;1.20;;;9.40;98.20;;;;;;5115459;27;20479;-77
2020/12/14 11:05:07;;;;;;;1.60;1.20;;;9.50;98.20;;;;;;5104104;27;20965;-76
2020/12/14 11:07:35;;;;;;;1.60;1.20;;;9.60;98.20;;;;;;5118419;27;20507;-76
2020/12/14 11:10:04;;;;;;;1.60;1.10;;;9.60;98.20;;;;;;5106083;27;20477;-75
2020/12/14 11:12:34;;;;;;;1.60;1.30;;;9.70;98.20;;;;;;5111649;27;20468;-76
2020/12/14 11:15:09;;;;;;;1.60;1.20;;;9.70;98.20;;;;;;5103548;27;20837;-76
2020/12/14 11:17:36;;;;;;;1.60;1.20;;;9.70;98.20;;;;;;5113547;27;20508;-74
2020/12/14 11:20:09;;;;;;;1.60;1.23;;;9.80;98.20;;;;;;5119444;27;21293;-75
2020/12/14 11:22:36;;;;;;;1.60;1.10;;;9.80;98.20;;;;;;5105896;28;20464;-76
2020/12/14 11:25:12;;;;;;;1.70;1.30;;;9.80;98.20;;;;;;5117821;27;20479;-76
2020/12/14 11:27:45;;;;;;;1.60;1.20;;;9.80;98.20;;;;;;5116739;27;20545;-75
2020/12/14 11:30:13;;;;;;;1.60;1.20;;;9.90;98.20;;;;;;5095760;27;20793;-75
2020/12/14 11:32:43;;;;;;;1.60;1.20;;;9.90;98.20;;;;;;5100838;27;20456;-74
2020/12/14 11:35:10;;;;;;;1.70;1.20;;;10.00;98.20;;;;;;5101524;27;20488;-76
2020/12/14 11:37:37;;;;;;;1.60;1.17;;;10.00;98.20;;;;;;5108626;27;20997;-75
2020/12/14 11:40:04;;;;;;;1.60;1.30;;;10.00;98.20;;;;;;5109707;27;20497;-75
2020/12/14 11:42:30;;;;;;;1.63;1.20;;;10.10;98.20;;;;;;5115540;27;20534;-75
2020/12/14 11:44:57;;;;;;;1.67;1.20;;;10.10;98.20;;;;;;5099735;28;20515;-76
2020/12/14 11:47:26;;;;;;;1.60;1.20;;;10.20;98.20;;;;;;5108286;28;20821;-76
2020/12/14 11:49:53;;;;;;;1.60;1.13;;;10.30;98.20;;;;;;5115548;27;20489;-75
2020/12/14 11:52:46;;;;;;;1.70;1.30;;;10.30;98.20;;;;;;5115593;27;20459;-76
2020/12/14 11:55:25;;;;;;;1.60;1.10;;;10.40;98.20;;;;;;5115950;27;20451;-77
2020/12/14 11:57:58;;;;;;;1.60;1.20;;;10.50;98.20;;;;;;5113400;27;20483;-77
2020/12/14 12:00:27;;;;;;;1.60;1.20;;;10.60;98.20;;;;;;5104227;28;21017;-76
2020/12/14 12:02:58;;;;;;;1.63;1.20;;;10.70;98.20;;;;;;5106466;27;20823;-76
2020/12/14 12:05:24;;;;;;;1.60;1.10;;;10.70;98.20;;;;;;5094049;28;20491;-75
2020/12/14 12:11:04;;;;;;;1.63;1.20;;;10.90;98.20;;;;;;5009009;28;20513;-76
2020/12/14 12:13:36;;;;;;;1.60;1.10;;;10.90;98.20;;;;;;5110225;27;20827;-76
2020/12/14 12:16:12;;;;;;;1.60;1.10;;;11.00;98.20;;;;;;5118849;27;20507;-73
2020/12/14 12:18:42;;;;;;;1.60;1.10;;;11.00;98.20;;;;;;5121945;27;21510;-74
2020/12/14 12:21:09;;;;;;;1.80;1.60;;;11.10;98.20;;;;;;5109907;28;20476;-74
2020/12/14 12:23:44;;;;;;;1.60;1.10;;;11.10;98.20;;;;;;5105420;28;20458;-75
2020/12/14 12:26:15;;;;;;;2.27;2.07;;;11.10;98.20;;;;;;5119543;27;20456;-75
2020/12/14 12:28:44;;;;;;;1.60;1.10;;;11.20;98.20;;;;;;5100137;28;20492;-75
2020/12/14 12:31:13;;;;;;;1.60;1.10;;;11.20;98.20;;;;;;5107465;28;21075;-75
2020/12/14 12:33:52;;;;;;;1.60;1.10;;;11.30;98.20;;;;;;5110168;28;21007;-75
2020/12/14 12:36:23;;;;;;;1.60;1.20;;;11.20;98.20;;;;;;5103983;28;20468;-75
2020/12/14 12:38:53;;;;;;;1.60;1.10;;;11.30;98.20;;;;;;5109136;28;20493;-75
2020/12/14 12:41:20;;;;;;;1.60;1.10;;;11.30;98.20;;;;;;5105074;28;20509;-75
2020/12/14 12:43:46;;;;;;;1.60;1.10;;;11.30;98.20;;;;;;5110243;28;20451;-74
2020/12/14 12:46:14;;;;;;;1.60;1.20;;;11.40;98.20;;;;;;5102527;28;20476;-75
2020/12/14 12:48:48;;;;;;;1.60;1.10;;;11.40;98.20;;;;;;5110920;28;20483;-75
2020/12/14 12:51:16;;;;;;;1.60;1.10;;;11.40;98.20;;;;;;5115645;28;20479;-74
2020/12/14 12:53:46;;;;;;;1.60;1.07;;;11.40;98.20;;;;;;5109665;28;20517;-74
2020/12/14 12:56:16;;;;;;;1.60;1.10;;;11.40;98.20;;;;;;5119274;28;20479;-75
2020/12/14 12:58:42;;;;;;;1.60;1.10;;;11.40;98.20;;;;;;5119417;28;20519;-75
2020/12/14 13:01:09;;;;;;;1.63;1.10;;;11.50;98.20;;;;;;5110003;28;20479;-75
2020/12/14 13:03:37;;;;;;;1.60;1.10;;;11.40;98.20;;;;;;5115093;28;20803;-75
2020/12/14 13:06:12;;;;;;;1.60;1.10;;;11.50;98.20;;;;;;5112245;28;20494;-75
2020/12/14 13:08:42;;;;;;;1.60;1.10;;;11.40;98.20;;;;;;5116613;28;20601;-75
2020/12/14 13:11:08;;;;;;;1.60;1.10;;;11.40;98.20;;;;;;5111260;27;20548;-75
2020/12/14 13:13:39;;;;;;;2.37;2.17;;;11.40;98.20;;;;;;5110883;28;20494;-75
2020/12/14 13:16:07;;;;;;;1.60;1.10;;;11.40;98.20;;;;;;5115312;27;20457;-75
2020/12/14 13:18:34;;;;;;;1.60;1.10;;;11.40;98.20;;;;;;5119468;27;20476;-73
2020/12/14 13:21:01;;;;;;;1.60;1.10;;;11.40;98.20;;;;;;5119340;27;20478;-75